Time;durP1;ratioP1;P1;durP2;ratioP2;P2;SDS_P1;SDS_P2;PMS_P1;PMS_P2;Temp;Humidity;BMP_temperature;BMP_pressure;BME280_temperature;BME280_humidity;BME280_pressure;Samples;Min_cycle;Max_cycle;Signal;HPM_P1;HPM_P2
2021/01/12 00:00:17;;;;;;;9.70;7.43;;;;;;;4.31;81.41;99692.16;5073360;28;20059;-65
2021/01/12 00:02:45;;;;;;;13.48;8.52;;;;;;;4.34;81.38;99683.28;5072669;28;20063;-65
2021/01/12 00:05:12;;;;;;;11.02;7.80;;;;;;;4.34;82.01;99683.28;5072885;28;20056;-65
2021/01/12 00:07:39;;;;;;;13.32;9.15;;;;;;;4.38;82.14;99680.78;5073179;28;20056;-65
2021/01/12 00:10:08;;;;;;;9.52;7.10;;;;;;;4.39;81.49;99666.72;5073208;28;20056;-64
2021/01/12 00:12:35;;;;;;;10.55;7.22;;;;;;;4.39;81.17;99661.19;5073748;28;20044;-64
2021/01/12 00:15:02;;;;;;;16.50;9.32;;;;;;;4.38;82.00;99655.97;5072750;28;20052;-64
2021/01/12 00:17:29;;;;;;;11.32;7.70;;;;;;;4.35;81.93;99659.34;5072972;28;20059;-64
2021/01/12 00:19:56;;;;;;;13.88;9.23;;;;;;;4.29;81.83;99653.03;5073267;28;20496;-65
2021/01/12 00:22:25;;;;;;;13.93;9.15;;;;;;;4.29;82.66;99655.81;5073373;28;20064;-64
2021/01/12 00:24:52;;;;;;;17.20;10.25;;;;;;;4.35;82.05;99643.59;5072879;28;20048;-64
2021/01/12 00:27:22;;;;;;;11.15;6.80;;;;;;;4.38;82.18;99643.00;5072910;28;20045;-64
2021/01/12 00:29:49;;;;;;;14.77;9.63;;;;;;;4.34;82.16;99627.34;5072673;28;20405;-64
2021/01/12 00:32:17;;;;;;;15.50;10.02;;;;;;;4.38;82.26;99615.44;5072928;28;20374;-64
2021/01/12 00:34:47;;;;;;;14.48;9.95;;;;;;;4.35;81.92;99618.78;5072985;28;20063;-64
2021/01/12 00:37:17;;;;;;;8.88;6.55;;;;;;;4.39;81.26;99636.38;5073087;28;20056;-65
2021/01/12 00:39:44;;;;;;;13.15;9.23;;;;;;;4.42;81.27;99621.19;5072917;28;20059;-64
2021/01/12 00:42:10;;;;;;;12.13;7.40;;;;;;;4.39;81.41;99628.13;5072168;28;20412;-64
2021/01/12 00:44:38;;;;;;;13.90;8.70;;;;;;;4.39;81.85;99606.06;5072875;28;20213;-64
2021/01/12 00:47:06;;;;;;;11.73;8.68;;;;;;;4.43;82.27;99592.47;5073036;28;20048;-64
2021/01/12 00:49:33;;;;;;;16.08;9.68;;;;;;;4.39;82.24;99589.53;5072894;28;20051;-64
2021/01/12 00:52:01;;;;;;;11.45;7.18;;;;;;;4.46;81.90;99595.47;5072786;28;20480;-64
2021/01/12 00:54:28;;;;;;;15.45;9.98;;;;;;;4.57;82.34;99593.41;5072308;28;20052;-64
2021/01/12 00:56:57;;;;;;;14.02;9.07;;;;;;;4.62;82.09;99585.06;5072591;28;20045;-64
2021/01/12 00:59:24;;;;;;;15.40;10.70;;;;;;;4.64;82.79;99598.56;5072844;28;20511;-64
2021/01/12 01:01:52;;;;;;;12.95;8.70;;;;;;;4.63;82.15;99580.38;5072209;28;20053;-64
2021/01/12 01:04:19;;;;;;;15.00;10.55;;;;;;;4.60;82.53;99572.69;5072651;28;20063;-64
2021/01/12 01:06:47;;;;;;;17.25;11.15;;;;;;;4.70;81.95;99569.78;5072672;28;20045;-63
2021/01/12 01:09:14;;;;;;;17.00;12.13;;;;;;;4.73;81.84;99571.97;5072423;28;20060;-64
2021/01/12 01:11:42;;;;;;;15.73;10.57;;;;;;;4.72;81.57;99573.06;5072531;28;20484;-64
2021/01/12 01:14:09;;;;;;;18.65;11.32;;;;;;;4.79;81.87;99569.97;5071943;28;20060;-64
2021/01/12 01:16:38;;;;;;;15.43;9.57;;;;;;;4.75;81.21;99564.22;5072099;28;20067;-64
2021/01/12 01:19:09;;;;;;;14.17;10.13;;;;;;;4.73;81.52;99558.16;5074459;28;20059;-64
2021/01/12 01:21:36;;;;;;;11.60;8.27;;;;;;;4.74;80.74;99562.56;5076598;28;20504;-64
2021/01/12 01:24:04;;;;;;;13.88;8.95;;;;;;;4.78;80.79;99552.56;5075219;28;20071;-64
2021/01/12 01:26:31;;;;;;;14.80;9.90;;;;;;;4.76;81.68;99545.72;5076275;28;20056;-63
2021/01/12 01:28:58;;;;;;;14.57;7.72;;;;;;;4.67;82.62;99537.28;5075778;28;20059;-64
2021/01/12 01:31:25;;;;;;;14.90;6.97;;;;;;;4.64;82.97;99527.69;5075875;28;20064;-64
2021/01/12 01:33:52;;;;;;;14.52;8.00;;;;;;;4.56;83.68;99533.88;5075243;28;20051;-64
2021/01/12 01:36:20;;;;;;;18.83;11.85;;;;;;;4.61;84.26;99524.69;5076170;28;20063;-64
2021/01/12 01:38:49;;;;;;;17.13;10.07;;;;;;;4.62;84.01;99531.84;5076103;28;20052;-64
2021/01/12 01:41:16;;;;;;;21.73;11.05;;;;;;;4.60;84.74;99536.81;5075954;28;20400;-64
2021/01/12 01:43:43;;;;;;;17.73;11.35;;;;;;;4.55;85.24;99531.41;5075154;28;20079;-64
2021/01/12 01:46:10;;;;;;;21.02;12.55;;;;;;;4.59;85.66;99516.72;5075659;28;20060;-64
2021/01/12 01:48:37;;;;;;;22.45;12.98;;;;;;;4.58;86.03;99525.31;5075868;28;20052;-64
2021/01/12 01:51:06;;;;;;;14.27;6.72;;;;;;;4.54;85.65;99516.78;5075732;28;20052;-64
2021/01/12 01:53:35;;;;;;;20.42;11.02;;;;;;;4.51;86.81;99514.63;5075323;28;20059;-64
2021/01/12 01:56:05;;;;;;;28.23;15.90;;;;;;;4.60;87.46;99512.00;5075474;28;20060;-64
2021/01/12 01:58:32;;;;;;;27.95;12.63;;;;;;;4.60;86.53;99501.81;5075305;28;20048;-64
2021/01/12 02:00:59;;;;;;;26.83;16.85;;;;;;;4.66;86.17;99503.38;5075491;28;20060;-64
2021/01/12 02:03:30;;;;;;;27.33;16.23;;;;;;;4.64;87.00;99507.53;5075829;28;20048;-64
2021/01/12 02:06:03;;;;;;;23.13;12.82;;;;;;;4.68;86.36;99498.38;5055363;28;20060;-64
2021/01/12 02:08:43;;;;;;;37.15;17.77;;;;;;;4.69;87.32;99496.44;5055533;28;20072;-64
2021/01/12 02:11:13;;;;;;;34.13;17.70;;;;;;;4.72;87.49;99487.56;5054864;28;20060;-63
2021/01/12 02:13:42;;;;;;;34.42;17.52;;;;;;;4.77;87.26;99481.16;5056853;28;20064;-64
2021/01/12 02:16:10;;;;;;;31.65;16.92;;;;;;;4.78;87.36;99464.28;5074958;28;20461;-64
2021/01/12 02:18:38;;;;;;;32.47;17.42;;;;;;;4.78;87.71;99461.53;5075152;28;20056;-64
2021/01/12 02:21:06;;;;;;;29.23;14.30;;;;;;;4.70;87.19;99453.94;5074557;28;20052;-64
2021/01/12 02:23:45;;;;;;;29.40;16.65;;;;;;;4.79;88.36;99457.66;5074312;28;20055;-64
2021/01/12 02:26:12;;;;;;;30.20;14.98;;;;;;;4.81;87.73;99458.19;5074989;28;20115;-64
2021/01/12 02:28:39;;;;;;;27.13;15.10;;;;;;;4.80;87.70;99439.97;5075151;28;20056;-64
2021/01/12 02:31:06;;;;;;;24.00;13.52;;;;;;;4.84;88.09;99435.50;5074166;28;20511;-64
2021/01/12 02:33:38;;;;;;;26.67;12.63;;;;;;;4.81;87.12;99446.34;5074465;28;20508;-64
2021/01/12 02:36:09;;;;;;;19.90;9.88;;;;;;;4.74;88.02;99430.13;5075003;28;20059;-64
2021/01/12 02:38:39;;;;;;;27.98;12.98;;;;;;;4.86;87.99;99430.50;5074776;28;20052;-64
2021/01/12 02:41:14;;;;;;;24.75;11.57;;;;;;;4.91;87.35;99428.78;5074599;28;20053;-64
2021/01/12 02:43:45;;;;;;;21.23;11.32;;;;;;;4.86;87.45;99405.66;5074149;28;20053;-64
2021/01/12 02:46:14;;;;;;;25.73;12.15;;;;;;;4.88;87.86;99416.41;5054046;28;20068;-64
2021/01/12 02:48:41;;;;;;;20.30;11.45;;;;;;;4.83;88.40;99400.75;5054337;28;20053;-64
2021/01/12 02:51:08;;;;;;;22.30;13.00;;;;;;;4.95;88.37;99396.69;5054388;28;20390;-64
2021/01/12 02:53:35;;;;;;;21.83;12.00;;;;;;;5.02;88.08;99391.63;5056236;28;20057;-64
2021/01/12 02:56:02;;;;;;;18.90;10.82;;;;;;;5.08;87.42;99379.31;5074525;28;20052;-64
2021/01/12 02:58:30;;;;;;;19.00;8.77;;;;;;;5.11;86.85;99384.25;5074368;28;20052;-64
2021/01/12 03:00:57;;;;;;;17.85;11.07;;;;;;;5.13;87.24;99376.47;5074127;28;20053;-63
2021/01/12 03:03:24;;;;;;;19.33;11.70;;;;;;;5.17;87.65;99366.47;5074840;28;20048;-64
2021/01/12 03:05:51;;;;;;;19.52;11.43;;;;;;;5.27;88.21;99373.72;5073365;28;20048;-64
2021/01/12 03:08:18;;;;;;;18.52;10.52;;;;;;;5.29;87.17;99369.56;5074250;28;20048;-64
2021/01/12 03:10:45;;;;;;;16.65;8.80;;;;;;;5.34;87.68;99365.88;5074116;28;20480;-64
2021/01/12 03:13:12;;;;;;;19.67;11.23;;;;;;;5.40;87.40;99361.06;5074021;28;20059;-64
2021/01/12 03:15:39;;;;;;;18.60;11.68;;;;;;;5.46;87.17;99354.31;5074141;28;20045;-64
2021/01/12 03:18:07;;;;;;;18.63;9.23;;;;;;;5.44;86.97;99338.03;5074153;28;20071;-63
2021/01/12 03:20:34;;;;;;;14.93;9.43;;;;;;;5.44;86.65;99353.81;5073705;28;20044;-63
2021/01/12 03:23:02;;;;;;;17.80;11.02;;;;;;;5.52;87.96;99342.00;5074260;28;20055;-63
2021/01/12 03:25:29;;;;;;;14.82;9.15;;;;;;;5.54;86.61;99317.66;5073681;28;20048;-63
2021/01/12 03:27:56;;;;;;;16.30;9.45;;;;;;;5.51;87.23;99342.34;5073445;28;20048;-62
2021/01/12 03:30:23;;;;;;;14.75;9.65;;;;;;;5.52;87.09;99321.88;5073492;28;20052;-63
2021/01/12 03:32:54;;;;;;;15.25;8.00;;;;;;;5.56;87.54;99311.84;5073829;28;20045;-63
2021/01/12 03:35:21;;;;;;;12.45;7.75;;;;;;;5.51;87.02;99318.28;5073838;28;20049;-61
2021/01/12 03:37:51;;;;;;;12.20;8.15;;;;;;;5.53;87.69;99307.75;5073675;28;20048;-62
2021/01/12 03:40:18;;;;;;;13.50;7.22;;;;;;;5.58;87.39;99309.56;5073455;28;20059;-63
2021/01/12 03:42:45;;;;;;;11.68;7.60;;;;;;;5.56;87.55;99309.88;5073410;28;20048;-62
2021/01/12 03:45:12;;;;;;;12.95;8.50;;;;;;;5.72;87.66;99304.03;5072898;28;20412;-62
2021/01/12 03:47:39;;;;;;;10.70;7.75;;;;;;;5.74;87.37;99291.53;5073667;28;20055;-62
2021/01/12 03:50:08;;;;;;;8.00;5.47;;;;;;;5.68;86.19;99296.34;5073498;28;20059;-62
2021/01/12 03:52:35;;;;;;;10.27;6.10;;;;;;;5.69;86.70;99299.94;5073622;28;20059;-62
2021/01/12 03:55:03;;;;;;;13.20;7.38;;;;;;;5.78;86.58;99287.03;5073464;28;20053;-63
2021/01/12 03:57:30;;;;;;;9.70;7.07;;;;;;;5.83;86.37;99270.31;5073196;28;20052;-63
2021/01/12 03:59:57;;;;;;;8.52;4.53;;;;;;;5.81;85.05;99269.00;5073370;28;20481;-62
2021/01/12 04:02:24;;;;;;;8.43;5.85;;;;;;;5.87;86.20;99276.84;5073307;28;20082;-63
2021/01/12 04:04:51;;;;;;;7.22;4.70;;;;;;;5.86;85.55;99263.38;5073076;28;20053;-63
2021/01/12 04:07:19;;;;;;;8.73;5.40;;;;;;;5.92;86.41;99259.31;5072927;28;20063;-62
2021/01/12 04:09:46;;;;;;;7.35;5.63;;;;;;;5.98;86.64;99260.88;5072922;28;20048;-62
2021/01/12 04:12:13;;;;;;;9.07;5.28;;;;;;;6.03;85.68;99251.66;5072969;28;20053;-62
2021/01/12 04:14:40;;;;;;;9.25;6.20;;;;;;;6.05;86.25;99250.19;5072928;28;20501;-63
2021/01/12 04:17:07;;;;;;;10.13;5.85;;;;;;;6.07;86.05;99244.38;5073099;28;20052;-62
2021/01/12 04:19:34;;;;;;;8.02;5.00;;;;;;;6.14;85.19;99238.41;5073158;28;20493;-62
2021/01/12 04:22:03;;;;;;;8.20;5.30;;;;;;;6.19;84.99;99241.00;5072928;28;20052;-63
2021/01/12 04:24:33;;;;;;;6.88;4.40;;;;;;;6.18;84.67;99239.41;5072517;28;20056;-62
2021/01/12 04:27:00;;;;;;;6.63;4.72;;;;;;;6.20;84.43;99223.31;5072948;28;20048;-63
2021/01/12 04:29:27;;;;;;;7.20;4.25;;;;;;;6.21;85.17;99228.50;5073003;28;20048;-62
2021/01/12 04:31:54;;;;;;;3.80;2.30;;;;;;;6.20;83.63;99237.13;5072809;28;20048;-62
2021/01/12 04:34:21;;;;;;;5.13;2.22;;;;;;;6.12;84.66;99211.06;5071972;28;20064;-62
2021/01/12 04:36:48;;;;;;;4.60;2.80;;;;;;;6.10;85.33;99221.63;5071937;28;20056;-62
2021/01/12 04:39:15;;;;;;;4.57;3.13;;;;;;;6.06;85.65;99215.88;5072436;28;20052;-63
2021/01/12 04:41:43;;;;;;;6.85;3.42;;;;;;;6.07;86.23;99209.25;5072888;28;20392;-63
2021/01/12 04:44:10;;;;;;;6.45;3.45;;;;;;;6.14;86.43;99210.75;5069844;28;20056;-62
2021/01/12 04:46:36;;;;;;;7.45;4.25;;;;;;;6.12;86.79;99204.72;5072953;28;20048;-62
2021/01/12 04:49:03;;;;;;;5.13;3.70;;;;;;;6.18;86.04;99207.03;5072521;28;20060;-62
2021/01/12 04:51:33;;;;;;;9.35;2.65;;;;;;;6.12;84.90;99201.94;5072300;28;20052;-62
2021/01/12 04:54:00;;;;;;;6.13;2.85;;;;;;;6.12;85.32;99185.38;5072061;28;20519;-62
2021/01/12 04:56:26;;;;;;;6.85;3.50;;;;;;;6.18;86.27;99203.44;5072624;28;20052;-62
2021/01/12 04:58:56;;;;;;;6.10;3.00;;;;;;;6.27;85.99;99193.25;5072445;28;20059;-61
2021/01/12 05:01:23;;;;;;;;;;;;;;;6.29;87.33;99191.78;5072869;28;20057;-63
2021/01/12 05:03:51;;;;;;;14.18;4.25;;;;;;;6.30;86.60;99176.84;5072015;28;20418;-63
2021/01/12 05:06:22;;;;;;;5.85;3.78;;;;;;;6.36;87.00;99183.03;5072328;28;20053;-62
2021/01/12 05:08:55;;;;;;;4.57;2.60;;;;;;;6.37;85.79;99173.63;5072516;28;20473;-62
2021/01/12 05:11:24;;;;;;;4.97;3.25;;;;;;;6.41;86.64;99177.38;5072370;28;20048;-62
2021/01/12 05:13:57;;;;;;;4.45;3.08;;;;;;;6.44;86.63;99170.38;5072328;28;20071;-62
2021/01/12 05:16:25;;;;;;;7.68;3.22;;;;;;;6.46;86.34;99173.66;5072047;28;20060;-63
2021/01/12 05:18:55;;;;;;;6.57;2.83;;;;;;;6.48;86.92;99152.84;5072174;28;20393;-63
2021/01/12 05:21:23;;;;;;;;;;;;;;;6.49;85.92;99148.13;5073136;28;20048;-62
2021/01/12 05:23:52;;;;;;;4.85;3.00;;;;;;;6.49;86.55;99142.59;5071648;28;20368;-62
2021/01/12 05:26:20;;;;;;;4.97;2.97;;;;;;;6.56;86.32;99147.66;5071870;28;20509;-63
2021/01/12 05:28:47;;;;;;;4.07;2.65;;;;;;;6.55;85.88;99143.25;5072030;28;20048;-62
2021/01/12 05:31:22;;;;;;;4.85;2.70;;;;;;;6.57;85.43;99139.03;5072351;28;20048;-63
2021/01/12 05:33:50;;;;;;;7.57;2.30;;;;;;;6.60;85.66;99137.59;5071878;28;20049;-62
2021/01/12 05:36:19;;;;;;;4.85;2.40;;;;;;;6.59;84.89;99133.19;5072242;28;20111;-62
2021/01/12 05:38:47;;;;;;;4.22;3.03;;;;;;;6.60;85.13;99137.59;5072129;28;20048;-63
2021/01/12 05:41:15;;;;;;;3.80;2.50;;;;;;;6.52;85.24;99130.06;5071767;28;20404;-63
2021/01/12 05:43:44;;;;;;;3.80;2.50;;;;;;;6.55;85.71;99126.66;5071956;28;20063;-63
2021/01/12 05:46:12;;;;;;;7.82;3.75;;;;;;;6.55;85.96;99110.06;5071962;28;20432;-63
2021/01/12 05:48:42;;;;;;;10.73;3.90;;;;;;;6.56;86.05;99100.63;5072511;28;20264;-63
2021/01/12 05:51:13;;;;;;;7.03;4.10;;;;;;;6.52;85.30;99117.06;5072069;28;20052;-63
2021/01/12 05:54:05;;;;;;;6.15;2.92;;;;;;;6.58;85.55;99120.50;5071717;28;20095;-63
2021/01/12 05:56:32;;;;;;;6.88;3.30;;;;;;;6.61;84.82;99106.00;5072064;28;20075;-64
2021/01/12 05:59:01;;;;;;;5.25;3.10;;;;;;;6.61;85.41;99103.25;5071871;28;20052;-63
2021/01/12 06:01:46;;;;;;;6.90;2.80;;;;;;;6.58;84.88;99103.91;5064342;28;20076;-63
2021/01/12 06:04:15;;;;;;;8.52;3.25;;;;;;;6.61;85.59;99101.28;5070275;28;20045;-63
2021/01/12 06:06:43;;;;;;;6.73;3.77;;;;;;;6.65;85.28;99098.69;5074464;28;20052;-63
2021/01/12 06:09:11;;;;;;;3.88;2.35;;;;;;;6.62;84.11;99091.06;5075392;28;20052;-64
2021/01/12 06:11:40;;;;;;;5.40;2.92;;;;;;;6.60;85.31;99088.59;5074897;28;20063;-63
2021/01/12 06:14:09;;;;;;;5.80;3.95;;;;;;;6.64;86.21;99080.47;5077833;28;20053;-63
2021/01/12 06:16:38;;;;;;;4.28;2.45;;;;;;;6.62;85.89;99091.06;5074733;28;20052;-64
2021/01/12 06:19:10;;;;;;;6.50;3.28;;;;;;;6.60;85.69;99093.31;5071887;28;20057;-64
2021/01/12 06:21:54;;;;;;;6.53;4.28;;;;;;;6.55;86.61;99074.94;5074840;28;20060;-64
2021/01/12 06:24:28;;;;;;;9.43;4.45;;;;;;;6.62;87.02;99074.44;5077641;28;20044;-64
2021/01/12 06:26:58;;;;;;;8.38;4.60;;;;;;;6.66;87.37;99073.47;5077053;28;20477;-63
2021/01/12 06:29:25;;;;;;;;;;;;;;;6.69;87.00;99075.59;5091766;28;20059;-63
2021/01/12 06:31:52;;;;;;;8.85;4.22;;;;;;;6.73;86.48;99061.13;5083753;28;20288;-63
2021/01/12 06:34:20;;;;;;;6.25;3.63;;;;;;;6.70;86.45;99057.06;5075065;28;20049;-64
2021/01/12 06:36:51;;;;;;;9.18;5.30;;;;;;;6.76;86.50;99069.59;5087694;28;20048;-64
2021/01/12 06:39:21;;;;;;;6.50;4.28;;;;;;;6.83;85.68;99058.84;5089907;28;20377;-64
2021/01/12 06:41:49;;;;;;;;;;;;;;;6.87;86.29;99059.03;5091241;28;20048;-64
2021/01/12 06:44:26;;;;;;;11.93;6.85;;;;;;;6.92;84.94;99058.84;5078484;28;19929;-64
2021/01/12 06:46:56;;;;;;;6.97;4.72;;;;;;;6.88;84.46;99057.88;5071427;28;20465;-64
2021/01/12 06:49:25;;;;;;;9.02;5.22;;;;;;;6.81;84.90;99058.34;5074312;28;20049;-64
2021/01/12 06:52:00;;;;;;;5.60;3.63;;;;;;;6.78;85.36;99053.47;5083821;28;20055;-64
2021/01/12 06:54:35;;;;;;;6.78;4.32;;;;;;;6.78;86.01;99050.69;5079425;28;20049;-64
2021/01/12 06:57:05;;;;;;;7.93;5.00;;;;;;;6.81;86.76;99040.94;5082008;28;20428;-59
2021/01/12 06:59:39;;;;;;;6.28;4.38;;;;;;;6.69;86.75;99042.38;5085886;28;20041;-59
2021/01/12 07:02:08;;;;;;;5.68;4.00;;;;;;;6.66;87.14;99050.53;5090583;28;20052;-58
2021/01/12 07:04:36;;;;;;;6.25;4.40;;;;;;;6.68;86.77;99045.50;5086260;28;20536;-59
2021/01/12 07:07:06;;;;;;;5.70;3.88;;;;;;;6.67;87.12;99038.31;5075649;28;20049;-65
2021/01/12 07:09:33;;;;;;;9.30;3.80;;;;;;;6.72;86.62;99046.47;5078532;28;20051;-64
2021/01/12 07:12:04;;;;;;;7.35;4.65;;;;;;;6.78;87.29;99039.63;5064175;28;20049;-64
2021/01/12 07:14:31;;;;;;;7.05;4.22;;;;;;;6.78;87.21;99044.34;5071477;28;20056;-65
2021/01/12 07:17:07;;;;;;;8.18;4.38;;;;;;;6.77;87.29;99064.88;5072786;28;20048;-65
2021/01/12 07:19:35;;;;;;;6.47;4.80;;;;;;;6.83;87.04;99033.94;5054219;28;20049;-65
2021/01/12 07:22:19;;;;;;;5.60;4.30;;;;;;;6.87;87.49;99039.66;5068901;28;20075;-66
2021/01/12 07:24:46;;;;;;;9.18;4.57;;;;;;;6.86;87.33;99038.00;5066073;28;20052;-65
2021/01/12 07:27:16;;;;;;;6.20;4.45;;;;;;;6.88;87.36;99041.25;5076104;28;20048;-65
2021/01/12 07:29:53;;;;;;;9.27;5.72;;;;;;;6.95;87.44;99047.16;5074697;28;20044;-66
2021/01/12 07:32:38;;;;;;;8.73;5.25;;;;;;;6.94;87.90;99036.38;5072077;28;20052;-65
2021/01/12 07:35:10;;;;;;;8.50;4.05;;;;;;;6.97;87.15;99042.09;5065797;28;20052;-66
2021/01/12 07:37:42;;;;;;;8.20;4.93;;;;;;;6.90;87.34;99034.25;5074007;28;20063;-65
2021/01/12 07:40:13;;;;;;;8.88;4.82;;;;;;;6.94;88.29;99041.94;5072941;28;20048;-65
2021/01/12 07:42:47;;;;;;;8.95;5.70;;;;;;;6.96;88.14;99042.41;5069696;28;20052;-65
2021/01/12 07:45:17;;;;;;;8.60;5.78;;;;;;;7.00;88.06;99032.31;5073253;28;20051;-65
2021/01/12 07:47:44;;;;;;;7.60;5.38;;;;;;;7.05;87.75;99029.38;5070118;28;20059;-65
2021/01/12 07:50:12;;;;;;;9.45;6.25;;;;;;;7.16;88.35;99025.16;5066728;28;20049;-65
2021/01/12 07:52:39;;;;;;;11.40;6.32;;;;;;;7.22;87.28;99029.34;5061786;28;20485;-65
2021/01/12 07:55:09;;;;;;;11.40;5.65;;;;;;;7.25;86.99;99023.19;5073165;28;20053;-65
2021/01/12 07:57:37;;;;;;;10.35;6.30;;;;;;;7.25;86.64;99027.91;5073043;28;20052;-66
2021/01/12 08:00:07;;;;;;;15.68;6.45;;;;;;;7.35;87.12;99023.97;5071766;28;20099;-66
2021/01/12 08:02:35;;;;;;;8.45;5.68;;;;;;;7.32;87.11;99026.25;5055028;28;20048;-66
2021/01/12 08:05:04;;;;;;;10.23;5.25;;;;;;;7.32;85.99;99029.00;5065076;28;20048;-65
2021/01/12 08:07:32;;;;;;;8.57;6.10;;;;;;;7.37;86.04;99027.22;5055173;28;20067;-66
2021/01/12 08:10:00;;;;;;;13.85;6.55;;;;;;;7.38;86.00;99026.09;5056089;28;20389;-65
2021/01/12 08:12:28;;;;;;;11.55;5.45;;;;;;;7.41;85.51;99030.97;5070786;28;20056;-66
2021/01/12 08:14:58;;;;;;;10.07;5.70;;;;;;;7.37;86.22;99032.75;5069461;28;20565;-65
2021/01/12 08:17:26;;;;;;;10.20;5.45;;;;;;;7.38;85.99;99023.31;5051602;28;20064;-66
2021/01/12 08:19:54;;;;;;;10.73;6.82;;;;;;;7.42;86.40;99018.75;5064617;28;20051;-66
2021/01/12 08:22:22;;;;;;;12.25;6.72;;;;;;;7.47;86.21;99018.56;5054326;28;20053;-66
2021/01/12 08:24:49;;;;;;;10.82;6.80;;;;;;;7.44;86.21;99022.81;5063746;28;20060;-66
2021/01/12 08:27:19;;;;;;;14.30;7.53;;;;;;;7.52;86.34;99021.97;5071711;28;20048;-66
2021/01/12 08:29:48;;;;;;;16.33;7.65;;;;;;;7.63;86.05;99016.91;5070528;28;20056;-66
2021/01/12 08:32:20;;;;;;;15.88;6.95;;;;;;;7.66;86.13;99024.53;5084614;28;20051;-66
2021/01/12 08:34:56;;;;;;;12.82;6.90;;;;;;;7.72;86.33;99031.53;5070051;28;20060;-66
2021/01/12 08:37:24;;;;;;;11.20;7.70;;;;;;;7.75;86.38;99040.31;5069604;28;20171;-66
2021/01/12 08:39:52;;;;;;;13.70;9.82;;;;;;;7.78;86.37;99036.91;5070511;28;20075;-66
2021/01/12 08:42:20;;;;;;;10.77;7.75;;;;;;;7.75;85.53;99029.25;5071312;28;20060;-66
2021/01/12 08:44:48;;;;;;;12.15;7.75;;;;;;;7.80;85.24;99031.84;5069283;28;20052;-66
2021/01/12 08:47:15;;;;;;;16.02;8.88;;;;;;;7.83;85.14;99037.56;5071025;28;20434;-66
2021/01/12 08:49:42;;;;;;;14.48;9.82;;;;;;;7.83;85.61;99036.72;5070816;28;20052;-66
2021/01/12 08:52:09;;;;;;;19.70;8.07;;;;;;;7.88;86.33;99050.41;5070999;28;20048;-66
2021/01/12 08:54:37;;;;;;;14.15;8.25;;;;;;;7.96;85.88;99051.50;5069466;28;20068;-66
2021/01/12 08:57:05;;;;;;;11.90;7.25;;;;;;;8.05;85.47;99055.88;5075336;28;20064;-66
2021/01/12 08:59:34;;;;;;;13.02;7.20;;;;;;;8.08;85.35;99065.50;5071472;28;20056;-66
2021/01/12 09:02:02;;;;;;;8.65;6.28;;;;;;;8.10;85.16;99052.09;5067660;28;20052;-66
2021/01/12 09:04:29;;;;;;;8.05;5.68;;;;;;;8.14;84.70;99056.66;5078234;28;20053;-66
2021/01/12 09:07:05;;;;;;;9.13;6.22;;;;;;;8.19;84.39;99057.63;5057710;28;20048;-66
2021/01/12 09:09:32;;;;;;;8.60;6.28;;;;;;;8.21;84.02;99055.31;5070136;28;20512;-66
2021/01/12 09:12:01;;;;;;;8.20;5.15;;;;;;;8.26;83.69;99060.69;5081334;28;20495;-66
2021/01/12 09:14:29;;;;;;;7.10;4.88;;;;;;;8.26;83.81;99066.25;5081226;28;20118;-66
2021/01/12 09:17:02;;;;;;;15.82;5.13;;;;;;;8.29;82.87;99065.56;5052479;28;20045;-66
2021/01/12 09:19:37;;;;;;;6.30;4.20;;;;;;;8.32;83.13;99056.59;5068179;28;20055;-66
2021/01/12 09:22:15;;;;;;;7.70;4.20;;;;;;;8.36;83.81;99063.09;5070827;28;20048;-66
2021/01/12 09:24:47;;;;;;;6.45;3.90;;;;;;;8.40;83.16;99066.00;5070342;28;20386;-66
2021/01/12 09:27:18;;;;;;;5.90;4.15;;;;;;;8.38;82.87;99065.50;5071931;28;20079;-66
2021/01/12 09:29:46;;;;;;;6.78;4.60;;;;;;;8.24;83.07;99074.09;5070372;28;20052;-66
2021/01/12 09:32:25;;;;;;;5.47;3.58;;;;;;;8.30;84.29;99072.75;5070608;28;20063;-66
2021/01/12 09:34:57;;;;;;;7.47;4.13;;;;;;;8.36;83.42;99076.13;5067851;28;20064;-66
2021/01/12 09:37:24;;;;;;;7.00;3.75;;;;;;;8.36;83.23;99087.22;5052317;28;20049;-66
2021/01/12 09:39:53;;;;;;;7.15;4.18;;;;;;;8.40;83.75;99089.03;5069919;28;20481;-65
2021/01/12 09:42:24;;;;;;;7.85;4.40;;;;;;;8.42;83.23;99092.31;5076753;28;20461;-65
2021/01/12 09:44:51;;;;;;;7.30;4.65;;;;;;;8.50;83.05;99094.22;5076259;28;20057;-65
2021/01/12 09:47:19;;;;;;;8.60;5.38;;;;;;;8.53;83.10;99103.84;5082367;28;20058;-65
2021/01/12 09:49:46;;;;;;;6.72;4.10;;;;;;;8.60;82.79;99106.09;5086486;28;20052;-65
2021/01/12 09:52:16;;;;;;;6.00;3.50;;;;;;;8.67;83.42;99104.44;5073401;28;20048;-65
2021/01/12 09:54:46;;;;;;;;;;;;;;;8.75;83.20;99108.28;5073028;28;20063;-65
2021/01/12 09:57:13;;;;;;;3.57;2.50;;;;;;;8.72;82.32;99115.31;5057704;28;20444;-65
2021/01/12 09:59:40;;;;;;;3.67;2.70;;;;;;;8.74;81.60;99112.22;5074164;28;20400;-65
2021/01/12 10:02:09;;;;;;;6.05;3.10;;;;;;;8.78;82.06;99115.94;5073759;28;20053;-65
2021/01/12 10:04:36;;;;;;;6.18;3.75;;;;;;;8.74;82.01;99121.34;5073673;28;20048;-66
2021/01/12 10:07:03;;;;;;;7.10;4.22;;;;;;;8.72;81.64;99125.63;5064991;28;20056;-66
2021/01/12 10:09:31;;;;;;;7.75;4.60;;;;;;;8.61;81.74;99132.69;5073797;28;20064;-66
2021/01/12 10:11:58;;;;;;;7.18;5.18;;;;;;;8.64;81.63;99143.13;5073924;28;20048;-66
2021/01/12 10:14:25;;;;;;;10.10;5.53;;;;;;;8.64;81.93;99151.47;5078661;28;20060;-66
2021/01/12 10:16:52;;;;;;;9.65;5.70;;;;;;;8.65;82.33;99153.91;5073349;28;20067;-66
2021/01/12 10:19:19;;;;;;;16.65;8.02;;;;;;;8.71;81.94;99147.03;5073390;28;20044;-65
2021/01/12 10:21:48;;;;;;;9.10;4.57;;;;;;;8.76;81.21;99150.72;5073011;28;20472;-66
2021/01/12 10:24:15;;;;;;;7.35;3.42;;;;;;;8.78;80.48;99143.72;5071445;28;20457;-66
2021/01/12 10:26:44;;;;;;;5.57;3.20;;;;;;;8.79;80.28;99155.63;5056029;28;20065;-66
2021/01/12 10:29:11;;;;;;;4.53;3.25;;;;;;;8.73;80.01;99149.44;5066149;28;20060;-66
2021/01/12 10:31:43;;;;;;;5.22;2.88;;;;;;;8.73;80.22;99155.00;5073808;28;20056;-66
2021/01/12 10:34:10;;;;;;;4.10;2.47;;;;;;;8.76;80.47;99165.44;5072454;28;20068;-66
2021/01/12 10:36:37;;;;;;;4.55;2.53;;;;;;;8.72;80.32;99164.47;5071664;28;20056;-66
2021/01/12 10:39:04;;;;;;;5.65;2.80;;;;;;;8.69;80.34;99156.81;5074691;28;20048;-66
2021/01/12 10:41:37;;;;;;;6.40;3.10;;;;;;;8.74;81.07;99156.63;5057164;28;20416;-66
2021/01/12 10:44:06;;;;;;;6.25;3.25;;;;;;;8.77;80.53;99155.94;5065484;28;20052;-66
2021/01/12 10:46:32;;;;;;;6.90;3.85;;;;;;;8.72;80.76;99158.94;5057011;28;20056;-66
2021/01/12 10:49:00;;;;;;;6.93;3.78;;;;;;;8.68;80.76;99167.09;5063842;28;20063;-66
2021/01/12 10:51:29;;;;;;;5.43;3.55;;;;;;;8.74;80.27;99171.31;5072584;28;20370;-66
2021/01/12 10:53:56;;;;;;;5.45;4.05;;;;;;;8.92;80.10;99168.44;5070000;28;20425;-66
2021/01/12 10:56:23;;;;;;;6.40;3.97;;;;;;;9.00;79.92;99172.34;5072955;28;20802;-64
2021/01/12 10:58:51;;;;;;;5.90;3.78;;;;;;;9.08;79.70;99163.13;5075924;28;20702;-64
2021/01/12 11:01:22;;;;;;;9.57;6.50;;;;;;;9.11;78.97;99168.00;5071307;28;20045;-64
2021/01/12 11:03:49;;;;;;;6.80;4.22;;;;;;;9.13;78.42;99176.81;5071922;28;20057;-64
2021/01/12 11:06:18;;;;;;;7.47;4.80;;;;;;;9.09;78.35;99175.84;5072897;28;20074;-64
2021/01/12 11:08:45;;;;;;;5.90;4.63;;;;;;;9.08;77.07;99179.81;5072921;28;20412;-63
2021/01/12 11:11:18;;;;;;;5.78;4.43;;;;;;;9.00;77.81;99180.66;5070789;28;20052;-64
2021/01/12 11:13:46;;;;;;;7.15;4.40;;;;;;;8.98;78.14;99177.41;5071734;28;20421;-64
2021/01/12 11:16:17;;;;;;;6.72;4.68;;;;;;;8.92;77.66;99179.56;5069475;28;20358;-64
2021/01/12 11:18:47;;;;;;;6.90;4.38;;;;;;;8.93;77.28;99195.88;5072426;28;20049;-63
2021/01/12 11:21:14;;;;;;;8.52;4.53;;;;;;;8.91;78.17;99203.75;5067817;28;20484;-64
2021/01/12 11:23:41;;;;;;;6.75;5.30;;;;;;;8.85;78.23;99198.72;5072425;28;20389;-63
2021/01/12 11:26:09;;;;;;;8.55;5.72;;;;;;;8.85;77.84;99204.28;5060267;28;20053;-63
2021/01/12 11:28:36;;;;;;;9.65;5.78;;;;;;;8.87;76.85;99208.34;5056995;28;20052;-64
2021/01/12 11:31:03;;;;;;;8.38;5.60;;;;;;;8.88;76.75;99212.75;5060935;28;20052;-64
2021/01/12 11:33:30;;;;;;;8.20;5.95;;;;;;;8.90;76.72;99207.69;5067337;28;20236;-64
2021/01/12 11:35:58;;;;;;;8.32;6.40;;;;;;;8.88;76.56;99214.69;5071217;28;20044;-63
2021/01/12 11:38:25;;;;;;;8.27;6.70;;;;;;;8.89;76.24;99217.16;5072360;28;20052;-63
2021/01/12 11:40:54;;;;;;;7.47;6.05;;;;;;;8.94;76.61;99219.75;5062203;28;20060;-63
2021/01/12 11:43:21;;;;;;;7.10;5.43;;;;;;;8.93;75.00;99223.66;5066952;28;20083;-63
2021/01/12 11:45:48;;;;;;;6.28;4.72;;;;;;;8.91;74.90;99223.19;5062301;28;20057;-63